LiveATC.Net - Listen to live air traffic control over the Internet!


ICAO: ENLI  IATA: FAN   Airport: Farsund Airport, Lista
City: Farsund
Country: Norway   Continent: Europe
ENZV METAR Weather: ENZV 010250Z VRB02KT 9999 FEW023 SCT034 BKN046 10/08 Q1005
ENLI Flight Activity (FlightAware)
ENLI CTAF
Feed Status: DOWN
Last heard on: 2016-09-30 13:55:02 (0 days 13 hours 36 minutes ago)
ENLI CTAF Audio Archives
FacilityFrequency
Lista Traffic/Lista Radio126.450


NOTICE

Unauthorized use prohibited. See LiveATC.net Terms of Service


Find LiveATC Audio Streams


Airport/ARTCC Code

Frequency
(e.g., 124.400, 128.75)
Site-wide search

Browse LiveATC Feeds
LiveATC Coverage Map
Top 50 LiveATC Feeds
Bad Weather Areas

LiveATC FAQ
Offer a LiveATC Feed
Contact LiveATC.net
Press Inquiries

LiveATC on iPhone
LiveATC on Android

Windows Phone
Windows 8/10

LiveATC Mobile
(Mobile browser)

ATC Audio Archives
Interesting Recordings

LiveATC Forums


Home Page
About LiveATC.net
Make a Donation
LiveATC Store

Terms of Use
Privacy Policy

Canadian Air Freqs

AIRMETs/SIGMETs

FAA Airport Status
Nat'l Airspace Status
Arrival Demand Charts


Server Software By:
Icecast.org
Liquidsoap